Time;durP1;ratioP1;P1;durP2;ratioP2;P2;SDS_P1;SDS_P2;PMS_P1;PMS_P2;Temp;Humidity;BMP_temperature;BMP_pressure;BME280_temperature;BME280_humidity;BME280_pressure;Samples;Min_cycle;Max_cycle;Signal;HPM_P1;HPM_P2
2022/09/08 00:02:41;;;;;;;3.67;1.45;;;19.40;99.90;;;;;;1896113;75;21067;-83
2022/09/08 00:05:36;;;;;;;1.72;1.10;;;19.30;99.90;;;;;;1900302;75;21044;-84
2022/09/08 00:08:27;;;;;;;3.12;1.30;;;19.20;99.90;;;;;;1895547;75;21095;-84
2022/09/08 00:11:21;;;;;;;3.42;1.37;;;19.20;99.90;;;;;;1917009;75;21088;-83
2022/09/08 00:14:13;;;;;;;4.00;1.40;;;19.30;99.90;;;;;;1893335;75;21051;-83
2022/09/08 00:17:05;;;;;;;5.05;1.37;;;19.40;99.90;;;;;;1882961;76;21655;-83
2022/09/08 00:19:56;;;;;;;2.42;1.30;;;19.40;99.90;;;;;;1891817;75;21063;-83
2022/09/08 00:22:48;;;;;;;4.50;1.27;;;19.50;99.90;;;;;;1884428;75;21087;-84
2022/09/08 00:25:39;;;;;;;4.03;1.25;;;19.50;99.90;;;;;;1906192;75;21200;-84
2022/09/08 00:28:31;;;;;;;5.33;1.60;;;19.50;99.90;;;;;;1904669;75;21683;-84
2022/09/08 00:31:22;;;;;;;2.85;1.45;;;19.50;99.90;;;;;;1902114;75;21158;-84
2022/09/08 00:37:14;;;;;;;4.65;1.62;;;19.50;99.90;;;;;;1890782;75;21745;-86
2022/09/08 00:40:08;;;;;;;4.87;1.85;;;19.60;99.90;;;;;;1895105;75;21053;-85
2022/09/08 00:43:04;;;;;;;3.00;1.27;;;19.60;99.90;;;;;;1898927;75;21136;-84
2022/09/08 00:45:58;;;;;;;3.75;1.30;;;19.50;99.90;;;;;;1884481;76;21098;-84
2022/09/08 00:48:53;;;;;;;2.25;1.50;;;19.60;99.90;;;;;;1906406;75;21161;-82
2022/09/08 00:51:47;;;;;;;3.45;1.40;;;19.60;99.90;;;;;;1906416;75;21088;-82
2022/09/08 00:54:39;;;;;;;2.42;1.42;;;19.60;99.90;;;;;;1905713;75;21080;-82
2022/09/08 00:57:31;;;;;;;2.50;1.45;;;19.70;99.90;;;;;;1900948;75;21191;-81
2022/09/08 01:00:22;;;;;;;2.65;1.55;;;19.70;99.90;;;;;;1895727;75;21195;-83
2022/09/08 01:03:15;;;;;;;5.37;1.45;;;19.80;99.90;;;;;;1895360;75;21122;-83
2022/09/08 01:06:13;;;;;;;2.50;1.27;;;19.70;99.90;;;;;;1894690;75;21063;-83
2022/09/08 01:15:27;;;;;;;3.05;1.22;;;19.80;99.90;;;;;;1901198;75;21046;-83
2022/09/08 01:18:19;;;;;;;3.35;1.37;;;19.70;99.90;;;;;;1892003;74;21075;-84
2022/09/08 01:21:18;;;;;;;6.20;1.90;;;19.80;99.90;;;;;;1882580;75;21047;-84
2022/09/08 01:24:29;;;;;;;3.08;1.85;;;19.80;99.90;;;;;;1887907;74;21100;-84
2022/09/08 01:27:23;;;;;;;4.80;1.70;;;19.80;99.90;;;;;;1893983;75;21122;-84
2022/09/08 01:30:16;;;;;;;4.60;1.82;;;19.70;99.90;;;;;;1884188;76;21560;-84
2022/09/08 01:33:10;;;;;;;3.22;1.62;;;19.70;99.90;;;;;;1898151;75;21621;-84
2022/09/08 01:36:08;;;;;;;6.70;1.52;;;19.80;99.90;;;;;;1894976;75;21059;-81
2022/09/08 01:39:00;;;;;;;4.00;1.50;;;19.80;99.90;;;;;;1894814;75;21180;-81
2022/09/08 01:41:51;;;;;;;2.25;1.40;;;19.70;99.90;;;;;;1882737;75;21114;-81
2022/09/08 01:44:44;;;;;;;5.10;1.40;;;19.70;99.90;;;;;;1899388;75;21613;-83
2022/09/08 01:47:35;;;;;;;1.77;1.15;;;19.70;99.90;;;;;;1898085;75;21056;-84
2022/09/08 01:50:26;;;;;;;1.70;1.10;;;19.70;99.90;;;;;;1900221;74;21038;-83
2022/09/08 01:53:19;;;;;;;2.75;1.25;;;19.70;99.90;;;;;;1898060;75;21060;-83
2022/09/08 01:56:11;;;;;;;3.05;1.20;;;19.60;99.90;;;;;;1891996;75;21138;-83
2022/09/08 01:59:03;;;;;;;2.25;1.30;;;19.60;99.90;;;;;;1889407;75;21621;-84
2022/09/08 02:01:54;;;;;;;2.12;1.20;;;19.60;99.90;;;;;;1893866;75;21098;-84
2022/09/08 02:04:46;;;;;;;2.10;1.20;;;19.60;99.90;;;;;;1876966;75;21165;-83
2022/09/08 02:07:38;;;;;;;1.77;0.70;;;19.60;99.90;;;;;;1895608;75;21204;-83
2022/09/08 02:10:29;;;;;;;1.77;0.70;;;19.60;99.90;;;;;;1888535;75;21087;-83
2022/09/08 02:13:22;;;;;;;2.05;0.70;;;19.50;99.90;;;;;;1893786;75;21110;-83
2022/09/08 02:16:14;;;;;;;1.90;0.78;;;19.60;99.90;;;;;;1894124;75;21237;-83
2022/09/08 02:19:06;;;;;;;1.75;0.80;;;19.50;99.90;;;;;;1910377;74;21169;-85
2022/09/08 02:21:57;;;;;;;1.67;1.05;;;19.50;99.90;;;;;;1918236;74;21046;-85
2022/09/08 02:24:49;;;;;;;1.30;0.72;;;19.40;99.90;;;;;;1912974;74;21047;-81
2022/09/08 02:27:40;;;;;;;2.25;0.62;;;19.40;99.90;;;;;;1910869;74;21575;-82
2022/09/08 02:30:32;;;;;;;1.82;0.80;;;19.40;99.90;;;;;;1909129;74;21544;-81
2022/09/08 02:33:24;;;;;;;3.20;1.10;;;19.40;99.90;;;;;;1900066;75;21120;-84
2022/09/08 02:36:16;;;;;;;1.87;1.12;;;19.30;99.90;;;;;;1914109;74;21124;-84
2022/09/08 02:39:11;;;;;;;1.75;1.00;;;19.20;99.90;;;;;;1910630;74;21046;-84
2022/09/08 02:42:02;;;;;;;1.35;0.90;;;19.10;99.90;;;;;;1906802;74;21181;-85
2022/09/08 02:47:35;;;;;;;3.10;0.90;;;19.10;99.90;;;;;;1950888;72;22174;-82
2022/09/08 02:50:26;;;;;;;2.15;0.90;;;19.10;99.90;;;;;;1884629;75;21044;-82
2022/09/08 02:53:17;;;;;;;1.65;0.70;;;19.10;99.90;;;;;;1883714;75;21095;-82
2022/09/08 02:56:09;;;;;;;1.42;0.72;;;19.10;99.90;;;;;;1905346;75;21036;-82
2022/09/08 02:59:00;;;;;;;2.58;0.98;;;19.10;99.90;;;;;;1905513;75;21064;-84
2022/09/08 03:01:52;;;;;;;2.20;1.12;;;19.10;99.90;;;;;;1883981;75;21109;-84
2022/09/08 03:04:43;;;;;;;4.72;0.90;;;18.90;99.90;;;;;;1878513;75;21075;-84
2022/09/08 03:07:34;;;;;;;2.67;0.80;;;18.90;99.90;;;;;;1885318;75;21141;-85
2022/09/08 03:13:06;;;;;;;3.85;1.00;;;18.80;99.90;;;;;;1947107;72;22193;-81
2022/09/08 03:15:57;;;;;;;2.20;0.90;;;18.80;99.90;;;;;;1906313;74;21131;-80
2022/09/08 03:18:48;;;;;;;1.85;0.62;;;18.70;99.90;;;;;;1905348;75;21224;-81
2022/09/08 03:21:39;;;;;;;1.77;0.68;;;18.70;99.90;;;;;;1905502;75;21070;-81
2022/09/08 03:24:42;;;;;;;2.25;0.85;;;18.70;99.90;;;;;;1915019;74;21499;-81
2022/09/08 03:30:15;;;;;;;4.10;1.00;;;18.50;99.90;;;;;;1958263;72;22171;-80
2022/09/08 03:33:06;;;;;;;2.42;0.80;;;18.50;99.90;;;;;;1902724;75;21076;-79
2022/09/08 03:36:01;;;;;;;1.98;0.98;;;18.60;99.90;;;;;;1895211;75;21117;-83
2022/09/08 03:38:52;;;;;;;1.98;0.85;;;18.50;99.90;;;;;;1917615;75;21095;-83
2022/09/08 03:41:44;;;;;;;2.47;0.80;;;18.50;99.90;;;;;;1916744;75;21106;-84
2022/09/08 03:44:35;;;;;;;1.00;0.70;;;18.30;99.90;;;;;;1903023;75;21051;-84
2022/09/08 03:47:27;;;;;;;3.83;0.80;;;18.10;99.90;;;;;;1897250;75;21040;-83
2022/09/08 03:50:19;;;;;;;3.10;0.72;;;18.00;99.90;;;;;;1888242;75;21155;-80
2022/09/08 03:53:11;;;;;;;5.42;1.07;;;18.00;99.90;;;;;;1907062;75;21063;-80
2022/09/08 03:56:04;;;;;;;1.17;0.90;;;18.00;99.90;;;;;;1904095;75;21575;-82
2022/09/08 03:58:55;;;;;;;1.75;0.85;;;18.10;99.90;;;;;;1899484;75;21052;-84
2022/09/08 04:01:47;;;;;;;2.87;1.12;;;18.10;99.90;;;;;;1895915;75;21051;-83
2022/09/08 04:04:39;;;;;;;2.37;0.90;;;18.10;99.90;;;;;;1895266;75;21128;-83
2022/09/08 04:07:33;;;;;;;3.67;0.80;;;18.10;99.90;;;;;;1896729;75;21119;-84
2022/09/08 04:10:24;;;;;;;3.83;1.10;;;18.00;99.90;;;;;;1901495;75;21102;-87
2022/09/08 04:13:16;;;;;;;2.95;0.80;;;17.90;99.90;;;;;;1884875;76;21121;-87
2022/09/08 04:16:08;;;;;;;2.85;0.90;;;18.00;99.90;;;;;;1913497;75;21109;-84
2022/09/08 04:18:59;;;;;;;1.35;0.82;;;18.00;99.90;;;;;;1895495;75;21051;-83
2022/09/08 04:21:51;;;;;;;1.10;0.60;;;17.90;99.90;;;;;;1899124;75;21059;-83
2022/09/08 04:24:42;;;;;;;0.95;0.60;;;17.90;99.90;;;;;;1884654;75;21205;-83
2022/09/08 04:27:34;;;;;;;1.95;0.90;;;17.90;99.90;;;;;;1884417;75;21109;-84
2022/09/08 04:30:25;;;;;;;1.15;0.80;;;18.00;99.90;;;;;;1917958;74;21204;-85
2022/09/08 04:33:17;;;;;;;1.12;0.68;;;18.00;99.90;;;;;;1921048;74;21047;-84
2022/09/08 04:36:11;;;;;;;3.17;0.88;;;18.00;99.90;;;;;;1900719;75;21106;-84
2022/09/08 04:39:05;;;;;;;2.02;0.80;;;18.10;99.90;;;;;;1911987;74;21136;-81
2022/09/08 04:41:56;;;;;;;0.50;0.50;;;18.10;99.90;;;;;;1927474;74;21116;-82
2022/09/08 04:44:48;;;;;;;1.60;0.90;;;18.10;99.90;;;;;;1922437;74;21132;-82
2022/09/08 04:47:39;;;;;;;1.20;0.50;;;18.10;99.90;;;;;;1915758;74;21063;-82
2022/09/08 04:50:30;;;;;;;2.37;0.72;;;18.10;99.90;;;;;;1922989;74;21108;-82
2022/09/08 04:53:22;;;;;;;1.60;0.85;;;18.10;99.90;;;;;;1922389;74;21149;-85
2022/09/08 04:56:15;;;;;;;3.77;0.75;;;18.20;99.90;;;;;;1921377;74;21093;-85
2022/09/08 04:59:06;;;;;;;3.37;0.95;;;18.20;99.90;;;;;;1916343;74;21101;-85
2022/09/08 05:01:57;;;;;;;1.87;0.70;;;18.20;99.90;;;;;;1911593;74;21051;-86
2022/09/08 05:04:50;;;;;;;1.85;1.00;;;18.20;99.90;;;;;;1910744;74;21119;-81
2022/09/08 05:07:43;;;;;;;3.87;1.50;;;18.20;99.90;;;;;;1908952;74;21156;-86
2022/09/08 05:10:35;;;;;;;5.87;1.27;;;18.20;99.90;;;;;;1918936;74;21140;-86
2022/09/08 05:13:27;;;;;;;4.00;1.17;;;18.20;99.90;;;;;;1913233;74;21162;-85
2022/09/08 05:16:20;;;;;;;6.80;1.67;;;18.20;99.90;;;;;;1924936;74;21158;-84
2022/09/08 05:19:14;;;;;;;3.27;0.90;;;18.10;99.90;;;;;;1922182;74;21051;-84
2022/09/08 05:22:05;;;;;;;3.67;1.50;;;18.20;99.90;;;;;;1900757;74;21473;-83
2022/09/08 05:24:57;;;;;;;3.33;1.55;;;18.20;99.90;;;;;;1915283;74;21106;-85
2022/09/08 05:27:50;;;;;;;2.35;1.82;;;18.20;99.90;;;;;;1906299;74;21054;-86
2022/09/08 05:30:42;;;;;;;3.95;1.60;;;18.30;99.90;;;;;;1914312;74;21074;-84
2022/09/08 05:33:34;;;;;;;5.67;2.02;;;18.40;99.90;;;;;;1884086;76;21486;-86
2022/09/08 05:36:28;;;;;;;3.40;1.92;;;18.50;99.90;;;;;;1864405;76;21501;-85
2022/09/08 05:39:20;;;;;;;3.17;1.52;;;18.50;99.90;;;;;;1884222;75;21072;-84
2022/09/08 05:42:12;;;;;;;4.25;1.85;;;18.60;99.90;;;;;;1890162;75;21047;-80
2022/09/08 05:45:03;;;;;;;2.72;2.20;;;18.70;99.90;;;;;;1893613;75;21074;-83
2022/09/08 05:50:40;;;;;;;4.90;1.60;;;18.80;99.90;;;;;;1958147;72;22215;-81
2022/09/08 05:53:31;;;;;;;3.35;1.87;;;18.90;99.90;;;;;;1917700;75;21145;-81
2022/09/08 05:56:23;;;;;;;2.45;1.90;;;18.90;99.90;;;;;;1917434;75;21532;-83
2022/09/08 05:59:15;;;;;;;3.42;1.90;;;19.00;99.90;;;;;;1917695;75;21556;-82
2022/09/08 06:02:06;;;;;;;5.05;1.75;;;19.00;99.90;;;;;;1917476;75;21157;-80
2022/09/08 06:04:58;;;;;;;5.03;2.37;;;19.10;99.90;;;;;;1925932;73;21050;-80
2022/09/08 06:07:50;;;;;;;2.87;1.82;;;19.20;99.90;;;;;;1927318;73;21120;-82
2022/09/08 06:10:41;;;;;;;2.58;1.70;;;19.20;99.90;;;;;;1917330;73;21139;-82
2022/09/08 06:13:36;;;;;;;2.77;1.82;;;19.30;99.90;;;;;;1936797;73;21118;-82
2022/09/08 06:16:29;;;;;;;5.80;1.70;;;19.30;99.90;;;;;;1917681;75;21130;-82
2022/09/08 06:19:21;;;;;;;2.98;1.82;;;19.40;99.90;;;;;;1940091;73;21143;-83
2022/09/08 06:22:15;;;;;;;5.08;1.70;;;19.50;99.90;;;;;;1917564;75;21046;-85
2022/09/08 06:25:08;;;;;;;6.70;1.65;;;19.60;99.90;;;;;;1917614;75;21055;-84
2022/09/08 06:28:04;;;;;;;5.37;2.00;;;19.60;99.90;;;;;;1917403;75;21105;-84
2022/09/08 06:30:58;;;;;;;3.65;1.82;;;19.70;99.90;;;;;;1937714;73;21134;-82
2022/09/08 06:33:50;;;;;;;3.33;1.60;;;19.70;99.90;;;;;;1917319;75;21043;-84
2022/09/08 06:36:45;;;;;;;6.75;1.95;;;19.60;99.90;;;;;;1917522;75;21056;-83
2022/09/08 06:39:40;;;;;;;3.17;2.00;;;19.70;99.90;;;;;;1932991;73;21102;-85
2022/09/08 06:42:38;;;;;;;3.33;2.35;;;19.70;99.90;;;;;;1929338;73;21173;-81
2022/09/08 06:45:32;;;;;;;3.05;2.27;;;19.70;99.90;;;;;;1917733;75;21051;-86
2022/09/08 06:48:28;;;;;;;4.83;1.70;;;19.70;99.90;;;;;;1880821;76;21063;-77
2022/09/08 06:54:25;;;;;;;4.53;1.80;;;19.50;99.90;;;;;;1958053;72;22103;-77
2022/09/08 06:57:23;;;;;;;4.25;1.80;;;19.40;99.90;;;;;;1898360;75;21610;-76
2022/09/08 07:00:20;;;;;;;4.22;1.70;;;19.50;99.90;;;;;;1885230;75;21104;-81
2022/09/08 07:03:19;;;;;;;2.87;1.65;;;19.50;99.90;;;;;;1907150;75;21130;-77
2022/09/08 07:06:11;;;;;;;3.67;2.05;;;19.60;99.90;;;;;;1884808;76;21105;-76
2022/09/08 07:09:12;;;;;;;3.58;1.80;;;19.50;99.90;;;;;;1904236;75;21040;-76
2022/09/08 07:12:17;;;;;;;7.83;2.52;;;19.60;99.90;;;;;;1901757;75;21120;-78
2022/09/08 07:15:44;;;;;;;3.52;2.30;;;19.70;99.90;;;;;;1898334;75;21518;-77
2022/09/08 07:21:23;;;;;;;5.58;2.95;;;19.80;99.90;;;;;;1925621;72;22575;-77
2022/09/08 07:24:18;;;;;;;4.92;2.30;;;19.80;99.90;;;;;;1914537;73;21047;-77
2022/09/08 07:27:12;;;;;;;6.12;2.20;;;19.90;99.90;;;;;;1900207;75;21120;-76
2022/09/08 07:30:06;;;;;;;2.83;1.92;;;20.00;99.90;;;;;;1903040;75;21636;-77
2022/09/08 07:33:00;;;;;;;4.83;2.70;;;20.00;99.90;;;;;;1903406;75;21062;-76
2022/09/08 07:35:59;;;;;;;3.15;2.40;;;20.00;99.90;;;;;;1880822;76;21069;-76
2022/09/08 07:38:52;;;;;;;3.00;1.85;;;19.80;99.90;;;;;;1904870;75;21234;-77
2022/09/08 07:41:47;;;;;;;3.12;1.90;;;19.90;99.90;;;;;;1906233;75;21055;-76
2022/09/08 07:44:38;;;;;;;3.77;1.87;;;19.90;99.90;;;;;;1909585;73;21164;-78
2022/09/08 07:47:40;;;;;;;4.33;2.12;;;20.00;99.90;;;;;;1897207;75;21164;-77
2022/09/08 07:54:13;;;;;;;6.67;2.50;;;20.30;99.90;;;;;;1895267;75;21506;-77
2022/09/08 07:57:07;;;;;;;4.03;2.17;;;20.30;99.90;;;;;;1896225;75;21135;-77
2022/09/08 08:00:05;;;;;;;6.22;2.30;;;20.40;99.90;;;;;;1895545;75;21625;-77
2022/09/08 08:03:08;;;;;;;6.33;2.67;;;20.40;99.90;;;;;;1895681;75;21122;-89
2022/09/08 08:06:02;;;;;;;7.40;3.42;;;20.40;99.90;;;;;;1906443;75;21095;-79
2022/09/08 08:08:59;;;;;;;4.03;1.77;;;20.50;99.90;;;;;;1884725;76;21120;-79
2022/09/08 08:11:56;;;;;;;2.92;1.67;;;20.70;99.90;;;;;;1862754;76;21082;-79
2022/09/08 08:14:50;;;;;;;2.37;1.70;;;20.60;99.90;;;;;;1927127;73;21112;-78
2022/09/08 08:17:45;;;;;;;2.00;1.35;;;20.70;99.90;;;;;;1892874;75;21620;-78
2022/09/08 08:20:47;;;;;;;4.15;1.50;;;20.70;99.90;;;;;;1900541;74;21502;-78
2022/09/08 08:23:57;;;;;;;4.15;2.17;;;20.70;99.90;;;;;;1927531;74;21325;-77
2022/09/08 08:26:53;;;;;;;3.65;1.57;;;20.70;99.90;;;;;;1920090;74;21079;-78
2022/09/08 08:30:06;;;;;;;6.12;1.75;;;20.70;99.90;;;;;;1915780;74;21098;-77
2022/09/08 08:33:01;;;;;;;2.95;1.70;;;20.90;99.90;;;;;;1913874;74;21110;-77
2022/09/08 08:35:55;;;;;;;3.22;1.35;;;21.00;99.90;;;;;;1909967;74;21639;-77
2022/09/08 08:38:51;;;;;;;1.30;1.20;;;21.10;99.90;;;;;;1921258;74;21501;-77
2022/09/08 08:41:52;;;;;;;4.33;1.32;;;21.10;99.90;;;;;;1881603;76;21106;-77
2022/09/08 08:47:48;;;;;;;3.42;1.98;;;21.10;99.90;;;;;;1959150;72;22201;-77
2022/09/08 08:54:10;;;;;;;3.40;1.10;;;21.30;99.90;;;;;;1936910;72;22221;-77
2022/09/08 08:57:09;;;;;;;2.08;1.30;;;21.40;99.90;;;;;;1907011;75;21066;-76
2022/09/08 09:00:14;;;;;;;4.00;1.40;;;21.50;99.90;;;;;;1906787;75;21098;-76
2022/09/08 09:06:32;;;;;;;1.37;1.10;;;21.60;99.90;;;;;;1948942;72;22153;-77
2022/09/08 09:12:55;;;;;;;3.00;1.12;;;21.60;99.90;;;;;;1952853;72;22133;-77
2022/09/08 09:19:30;;;;;;;3.30;1.25;;;21.70;99.90;;;;;;1954085;72;22213;-76
2022/09/08 09:22:28;;;;;;;4.22;1.30;;;21.70;99.90;;;;;;1909764;75;21047;-77
2022/09/08 09:25:30;;;;;;;2.45;1.20;;;21.80;99.90;;;;;;1896234;75;21150;-77
2022/09/08 09:28:52;;;;;;;4.55;1.30;;;21.80;99.90;;;;;;1902793;75;21518;-77
2022/09/08 09:32:18;;;;;;;1.50;1.02;;;21.90;99.90;;;;;;1884695;76;21124;-77
2022/09/08 09:35:36;;;;;;;1.70;1.05;;;22.00;99.90;;;;;;1906522;75;21147;-77
2022/09/08 09:38:57;;;;;;;;;;;22.00;99.90;;;;;;1898255;75;21054;-77
2022/09/08 09:42:02;;;;;;;3.47;1.00;;;21.90;99.90;;;;;;1874062;76;20150;-77
2022/09/08 09:48:00;;;;;;;1.40;0.80;;;21.90;99.90;;;;;;1934145;72;22340;-83
2022/09/08 09:54:14;;;;;;;2.42;0.90;;;22.00;99.90;;;;;;1952189;72;22240;-76
2022/09/08 09:57:24;;;;;;;1.50;1.00;;;22.10;99.90;;;;;;1906886;75;21558;-76
2022/09/08 10:00:19;;;;;;;2.05;1.60;;;22.10;99.90;;;;;;1906584;75;21228;-76
2022/09/08 10:04:00;;;;;;;2.95;1.02;;;22.10;99.90;;;;;;1890412;75;21157;-76
2022/09/08 10:07:15;;;;;;;2.50;0.90;;;22.10;99.90;;;;;;1780258;76;21104;-76
2022/09/08 10:10:29;;;;;;;1.95;0.88;;;22.00;99.90;;;;;;1896463;75;21779;-81
2022/09/08 10:13:37;;;;;;;1.90;0.85;;;22.20;99.90;;;;;;1896076;75;21161;-82
2022/09/08 10:16:58;;;;;;;2.00;0.80;;;22.20;99.90;;;;;;1884959;75;21059;-81
2022/09/08 10:20:15;;;;;;;4.58;1.20;;;22.20;99.90;;;;;;1893701;75;21120;-82
2022/09/08 10:23:31;;;;;;;1.65;0.80;;;22.30;99.90;;;;;;1895834;75;21087;-79
2022/09/08 10:26:48;;;;;;;4.83;1.12;;;22.40;99.90;;;;;;1911294;75;21048;-80
2022/09/08 10:33:21;;;;;;;2.80;1.15;;;22.60;99.90;;;;;;1941614;72;27973;-78
2022/09/08 10:36:11;;;;;;;;;;;22.80;99.90;;;;;;1908285;75;21052;-79
2022/09/08 10:39:07;;;;;;;1.67;0.90;;;22.90;99.90;;;;;;1908902;75;20178;-79
2022/09/08 10:45:27;;;;;;;2.42;0.90;;;22.90;99.90;;;;;;1951916;72;22206;-83
2022/09/08 10:51:55;;;;;;;4.62;0.80;;;22.90;99.90;;;;;;1967269;72;22570;-81
2022/09/08 10:58:29;;;;;;;3.50;1.27;;;23.20;99.90;;;;;;1954848;72;22175;-80
2022/09/08 11:01:46;;;;;;;1.77;0.80;;;23.40;99.90;;;;;;1930856;73;21062;-86
2022/09/08 11:04:50;;;;;;;1.77;0.90;;;23.30;99.90;;;;;;1952959;73;21075;-79
2022/09/08 11:11:15;;;;;;;6.40;1.20;;;23.40;99.90;;;;;;1950824;72;22577;-79
2022/09/08 11:14:11;;;;;;;1.20;0.80;;;23.50;99.90;;;;;;1884631;76;21111;-79
2022/09/08 11:17:15;;;;;;;2.08;0.80;;;23.60;99.90;;;;;;1890554;75;21181;-79
2022/09/08 11:20:12;;;;;;;1.92;0.88;;;23.70;99.90;;;;;;1899859;75;21204;-79
2022/09/08 11:23:14;;;;;;;3.10;0.90;;;23.90;99.90;;;;;;1909271;74;21083;-79
2022/09/08 11:26:17;;;;;;;2.40;0.80;;;23.90;99.90;;;;;;1906002;75;21098;-79
2022/09/08 11:29:12;;;;;;;3.02;0.90;;;24.10;99.90;;;;;;1906507;75;21165;-80
2022/09/08 11:32:08;;;;;;;4.35;0.85;;;24.20;99.90;;;;;;1865707;76;21097;-80
2022/09/08 11:35:13;;;;;;;1.82;0.78;;;24.10;99.90;;;;;;1891483;75;21208;-79
2022/09/08 11:38:14;;;;;;;4.58;0.93;;;24.10;99.90;;;;;;1901288;75;21130;-80
2022/09/08 11:41:34;;;;;;;1.67;0.75;;;24.00;99.90;;;;;;1898027;75;21117;-80
2022/09/08 11:44:46;;;;;;;3.27;0.80;;;24.10;99.90;;;;;;1898853;75;21562;-80
2022/09/08 11:51:13;;;;;;;1.80;0.75;;;24.20;99.90;;;;;;1954334;72;22113;-79
2022/09/08 11:54:15;;;;;;;1.10;0.60;;;24.20;99.90;;;;;;1898861;75;21071;-79
2022/09/08 11:57:23;;;;;;;3.12;0.88;;;24.30;99.90;;;;;;1896996;75;21121;-79
2022/09/08 12:00:22;;;;;;;1.87;0.80;;;24.30;99.90;;;;;;1895276;75;21487;-79
2022/09/08 12:03:58;;;;;;;1.95;0.82;;;24.30;99.90;;;;;;1913907;75;21044;-79
2022/09/08 12:07:13;;;;;;;0.90;0.50;;;24.40;99.90;;;;;;1896597;75;21118;-80
2022/09/08 12:10:33;;;;;;;1.95;0.78;;;24.70;99.90;;;;;;1910362;74;21050;-80
2022/09/08 12:13:29;;;;;;;3.60;0.80;;;24.70;99.90;;;;;;1897376;75;21168;-79
2022/09/08 12:16:39;;;;;;;1.85;0.85;;;24.90;99.90;;;;;;1895889;75;21145;-80
2022/09/08 12:19:38;;;;;;;1.25;0.80;;;24.90;99.90;;;;;;1895579;75;21168;-79
2022/09/08 12:22:49;;;;;;;1.35;0.60;;;25.10;99.90;;;;;;1891128;75;21182;-79
2022/09/08 12:26:13;;;;;;;0.90;0.50;;;25.20;99.90;;;;;;1906931;75;21083;-80
2022/09/08 12:29:21;;;;;;;2.10;0.90;;;25.20;99.90;;;;;;1902727;73;21107;-79
2022/09/08 12:32:32;;;;;;;1.07;0.60;;;25.30;99.90;;;;;;1906256;75;21180;-80
2022/09/08 12:35:33;;;;;;;4.78;1.27;;;25.40;99.90;;;;;;1887586;75;21055;-80
2022/09/08 12:38:48;;;;;;;1.37;0.62;;;25.30;99.90;;;;;;1895470;75;21121;-78
2022/09/08 12:41:56;;;;;;;1.72;0.70;;;25.30;99.90;;;;;;1885545;75;21059;-81
2022/09/08 12:44:50;;;;;;;;;;;25.30;99.90;;;;;;1907466;75;21425;-82
2022/09/08 12:47:45;;;;;;;1.85;0.50;;;25.50;99.90;;;;;;1891857;75;20123;-81
2022/09/08 12:50:47;;;;;;;2.10;0.60;;;25.60;99.90;;;;;;1916470;73;21150;-85
2022/09/08 12:56:46;;;;;;;1.10;0.50;;;25.60;99.90;;;;;;1957159;72;22150;-84
2022/09/08 12:59:49;;;;;;;1.82;0.60;;;25.60;99.90;;;;;;1894714;73;21513;-81
2022/09/08 13:06:10;;;;;;;1.98;0.80;;;25.80;99.90;;;;;;1958084;72;22208;-82
2022/09/08 13:09:07;;;;;;;2.25;0.70;;;25.70;99.90;;;;;;1895800;73;21160;-83
2022/09/08 13:15:22;;;;;;;1.40;0.75;;;25.80;99.90;;;;;;1975831;72;22185;-83
2022/09/08 13:18:21;;;;;;;1.40;0.42;;;25.60;99.90;;;;;;1929871;73;21121;-81
2022/09/08 13:21:15;;;;;;;2.20;1.50;;;25.80;99.90;;;;;;1943572;73;21047;-82
2022/09/08 13:24:14;;;;;;;2.72;1.30;;;25.80;99.90;;;;;;1945297;72;21554;-82
2022/09/08 13:27:27;;;;;;;0.57;0.40;;;25.90;99.90;;;;;;1941660;73;21156;-84
2022/09/08 13:30:37;;;;;;;2.35;0.60;;;25.90;99.90;;;;;;1928469;73;21093;-83
2022/09/08 13:33:42;;;;;;;;;;;26.00;99.90;;;;;;1942585;74;21126;-83
2022/09/08 13:36:45;;;;;;;1.50;0.53;;;26.00;99.90;;;;;;1935845;73;20183;-85
2022/09/08 13:40:06;;;;;;;1.25;0.50;;;26.00;99.90;;;;;;1930858;74;21048;-85
2022/09/08 13:43:39;;;;;;;1.25;0.50;;;26.00;99.90;;;;;;1917715;75;21179;-82
2022/09/08 13:46:36;;;;;;;1.30;0.60;;;26.00;99.90;;;;;;1898902;75;21101;-80
2022/09/08 13:50:01;;;;;;;1.60;0.57;;;26.00;99.90;;;;;;1936598;74;21051;-81
2022/09/08 13:53:08;;;;;;;1.50;0.55;;;26.20;99.90;;;;;;1935641;74;21139;-82
2022/09/08 13:56:07;;;;;;;2.60;0.50;;;26.20;99.90;;;;;;1941025;74;21118;-81
2022/09/08 13:59:03;;;;;;;1.77;0.30;;;26.50;99.90;;;;;;1880826;76;21525;-81
2022/09/08 14:04:44;;;;;;;0.82;0.20;;;26.50;97.40;;;;;;1947839;72;22695;-85
2022/09/08 14:07:37;;;;;;;1.80;0.50;;;26.70;98.00;;;;;;1917563;75;21091;-81
2022/09/08 14:10:58;;;;;;;1.05;0.50;;;26.90;97.20;;;;;;1915154;75;21553;-84
2022/09/08 14:13:49;;;;;;;1.10;0.25;;;27.70;96.20;;;;;;1917618;75;21132;-84
2022/09/08 14:16:41;;;;;;;0.93;0.50;;;28.20;95.10;;;;;;1917590;75;21105;-85
2022/09/08 14:19:44;;;;;;;1.47;0.20;;;28.40;93.30;;;;;;1917332;75;21580;-85
2022/09/08 14:22:42;;;;;;;0.65;0.40;;;28.80;91.50;;;;;;1917659;75;21062;-84
2022/09/08 14:25:37;;;;;;;0.78;0.40;;;29.00;90.80;;;;;;1940274;73;21128;-84
2022/09/08 14:28:37;;;;;;;1.12;0.40;;;29.20;90.60;;;;;;1919729;75;21099;-84
2022/09/08 14:31:36;;;;;;;0.65;0.30;;;29.30;88.60;;;;;;1936978;73;21027;-84
2022/09/08 14:34:38;;;;;;;1.42;0.37;;;29.50;87.20;;;;;;1918523;75;21059;-84
2022/09/08 14:37:32;;;;;;;1.37;0.30;;;29.60;85.70;;;;;;1940760;73;21121;-83
2022/09/08 14:40:28;;;;;;;0.95;0.20;;;29.60;83.50;;;;;;1917419;75;21060;-84
2022/09/08 14:43:28;;;;;;;;;;;29.80;82.50;;;;;;1920371;75;21095;-83
2022/09/08 14:46:23;;;;;;;1.37;0.30;;;29.50;81.80;;;;;;1919286;73;20122;-85
2022/09/08 14:49:23;;;;;;;0.88;0.30;;;29.70;82.70;;;;;;1917346;73;21114;-83
2022/09/08 14:52:24;;;;;;;0.40;0.20;;;29.60;82.70;;;;;;1928758;73;21122;-84
2022/09/08 14:55:22;;;;;;;0.82;0.20;;;29.60;81.80;;;;;;1920417;73;21157;-80
2022/09/08 14:58:37;;;;;;;0.40;0.30;;;30.00;80.90;;;;;;1917679;75;21098;-81
2022/09/08 15:01:32;;;;;;;2.30;0.40;;;30.20;78.80;;;;;;1917320;75;21547;-80
2022/09/08 15:04:30;;;;;;;0.50;0.30;;;29.90;80.50;;;;;;1923024;74;21137;-82
2022/09/08 15:07:26;;;;;;;0.53;0.30;;;29.30;81.30;;;;;;1915987;74;21104;-84
2022/09/08 15:10:23;;;;;;;0.45;0.37;;;29.10;81.80;;;;;;1916437;74;21162;-87
2022/09/08 15:13:21;;;;;;;1.40;0.50;;;28.60;81.30;;;;;;1897663;74;21051;-83
2022/09/08 15:16:29;;;;;;;0.30;0.20;;;28.60;81.90;;;;;;1921711;74;21621;-83
2022/09/08 15:22:14;;;;;;;0.45;0.30;;;29.60;77.60;;;;;;1953683;72;22253;-84
2022/09/08 15:25:24;;;;;;;1.57;0.30;;;29.00;78.60;;;;;;1910855;73;21057;-83
2022/09/08 15:28:30;;;;;;;1.30;0.20;;;28.90;80.10;;;;;;1864232;76;21102;-82
2022/09/08 15:31:32;;;;;;;0.62;0.30;;;29.00;78.50;;;;;;1898360;75;21175;-84
2022/09/08 15:34:30;;;;;;;2.37;0.53;;;28.50;80.70;;;;;;1895480;75;21188;-84
2022/09/08 15:37:27;;;;;;;2.22;0.50;;;28.50;80.60;;;;;;1913608;75;21051;-83
2022/09/08 15:40:22;;;;;;;1.82;0.53;;;28.90;80.30;;;;;;1894005;75;21102;-83
2022/09/08 15:43:16;;;;;;;1.32;0.50;;;28.30;81.60;;;;;;1893903;75;21109;-85
2022/09/08 15:46:16;;;;;;;1.75;0.50;;;27.80;83.90;;;;;;1930847;73;21153;-85
2022/09/08 15:49:14;;;;;;;1.10;0.40;;;27.40;84.80;;;;;;1884459;75;21113;-84
2022/09/08 15:52:15;;;;;;;1.10;0.30;;;27.40;85.80;;;;;;1910708;75;21203;-84
2022/09/08 15:55:12;;;;;;;1.02;0.37;;;27.20;85.90;;;;;;1887644;75;21059;-84
2022/09/08 15:58:22;;;;;;;2.02;0.98;;;27.10;86.70;;;;;;1909553;75;21503;-84
2022/09/08 16:01:17;;;;;;;0.90;0.20;;;27.10;86.70;;;;;;1915293;75;21139;-84
2022/09/08 16:04:21;;;;;;;0.90;0.40;;;27.20;87.80;;;;;;1905196;75;21168;-83
2022/09/08 16:07:19;;;;;;;1.57;0.55;;;27.00;87.80;;;;;;1917789;75;21487;-83
2022/09/08 16:10:18;;;;;;;2.85;0.40;;;26.80;88.80;;;;;;1897464;75;21188;-84
2022/09/08 16:13:18;;;;;;;2.72;0.70;;;26.60;89.30;;;;;;1885658;75;21061;-85
2022/09/08 16:16:45;;;;;;;1.00;0.40;;;26.30;90.60;;;;;;1903695;75;21172;-83
2022/09/08 16:19:38;;;;;;;0.93;0.60;;;26.20;91.40;;;;;;1897724;75;21154;-83
2022/09/08 16:22:35;;;;;;;1.50;0.30;;;26.10;92.30;;;;;;1896436;75;21059;-83
2022/09/08 16:25:39;;;;;;;2.60;0.60;;;26.10;92.00;;;;;;1892917;75;21042;-84
2022/09/08 16:28:35;;;;;;;1.12;0.30;;;26.00;93.70;;;;;;1904643;75;21110;-84
2022/09/08 16:31:30;;;;;;;0.60;0.30;;;25.90;94.00;;;;;;1900217;75;21176;-84
2022/09/08 16:34:32;;;;;;;1.77;0.50;;;25.70;94.30;;;;;;1893200;75;21130;-84
2022/09/08 16:37:28;;;;;;;3.20;0.50;;;25.60;94.30;;;;;;1902093;75;21059;-85
2022/09/08 16:40:22;;;;;;;1.05;0.50;;;25.50;94.70;;;;;;1912810;75;21039;-84
2022/09/08 16:43:17;;;;;;;2.15;0.50;;;25.50;94.90;;;;;;1892884;75;21138;-83
2022/09/08 16:46:13;;;;;;;0.80;0.47;;;25.50;95.20;;;;;;1873121;74;21059;-86
2022/09/08 16:49:19;;;;;;;1.75;0.50;;;25.50;94.90;;;;;;1884462;75;21092;-83
2022/09/08 16:55:32;;;;;;;1.10;0.50;;;25.50;95.10;;;;;;1958648;72;22594;-82
2022/09/08 16:58:31;;;;;;;2.08;0.53;;;25.50;95.50;;;;;;1924068;73;21106;-82
2022/09/08 17:01:31;;;;;;;3.12;0.50;;;25.50;95.90;;;;;;1940105;73;21047;-81